Airfield :
LOGIN :

Register | Disclaimer

   EN    FR    IT 

 










Legend :    VFR   Marginal VFR   IFR   Intensive IFR   Very Intensive IFR
Visi :
Ceiling :
>= 8 km
>= 3000ft
5 to 8 km
1000 to 3000 ft
1500m to 5 km
500 to 1000 ft
800 to 1500m
200 to 500 ft
< 800m
< 200 ft
Symbols :   Thunderstorms  Fog  Heavy snow  Heavy precipitations  Wind > 20 kt
SIGMETs :     Misc.  Thunderstorms  Icing  Turbulence  Mountain Waves  Volcanic Ashes






- Airport Elevation : 40 ft
- IATA code : RMI


LIPR - Federico Fellini Int. Rimini

CURRENT METAR :
  • 180550Z AUTO 06004KT 9999 BKN094/// 24/17 Q1017

EXPIRED METARs :
  • 180520Z AUTO VRB02KT 9999 BKN092/// BKN190/// 23/17 Q1016
  • 180450Z AUTO VRB02KT 9999 SCT090/// BKN170/// 22/17 Q1016
  • 180420Z AUTO 25002KT 9999 SCT140/// BKN180/// 21/16 Q1016
  • 180350Z AUTO 24003KT 200V320 9999 FEW140/// BKN170/// 22/16 Q1016
  • 180320Z AUTO 19003KT 9999 FEW140/// BKN170/// 21/16 Q1016

TAF TAF LIPR
Valid from the 18 at 06:00 until the 18 at 15:00 UTC


180500Z 1806/1815 VRB05KT 9999 SCT050
BECMG 1809/1811 07010KT



MET'MAP, your aeronautical weather chart ! - Copyright ORBIFLY December 2007 - Disclaimer

ORBIFLY MET'MAP TEAM :

Programming & Development : Alexandra Zaïnal
Concept & original design : Baudouin d'Aumeries
Assistance for programming : Marc-Olivier Méhu
Technical & hardware support : Manuel Goepfert

Contact : metmap@orbifly.com




SOURCES & CREDITS :

   NOAA